createdAt,value
2023-03-23T15:57:58.675Z,0.80
2023-03-23T16:00:28.028Z,1.00
2023-03-23T16:03:05.249Z,0.68
2023-03-23T16:05:33.407Z,0.65
2023-03-23T16:08:00.915Z,0.73
2023-03-23T16:10:28.990Z,0.90
2023-03-23T16:12:56.273Z,1.17
2023-03-23T16:15:23.352Z,0.90
2023-03-23T16:17:50.608Z,0.65
2023-03-23T16:20:20.500Z,0.50
2023-03-23T16:22:48.745Z,1.02
2023-03-23T16:25:16.065Z,0.65
2023-03-23T16:27:43.462Z,0.70
2023-03-23T16:30:16.112Z,1.10
2023-03-23T16:35:10.253Z,0.90
2023-03-23T16:37:37.417Z,0.77
2023-03-23T16:40:05.950Z,1.25
2023-03-23T16:42:33.048Z,0.80
2023-03-23T16:45:00.175Z,1.42
2023-03-23T16:47:27.411Z,1.23
2023-03-23T16:49:54.694Z,1.92
2023-03-23T16:52:21.674Z,1.38
2023-03-23T16:54:48.691Z,1.00
2023-03-23T16:57:16.527Z,0.75
2023-03-23T16:59:43.975Z,0.90
2023-03-23T17:02:12.459Z,1.08
2023-03-23T17:04:46.487Z,1.35
2023-03-23T17:07:14.337Z,1.02
2023-03-23T17:09:42.660Z,1.40
2023-03-23T17:12:09.850Z,1.17
2023-03-23T17:14:37.056Z,1.25
2023-03-23T17:17:04.153Z,1.40
2023-03-23T17:19:31.654Z,2.00
2023-03-23T17:21:59.977Z,1.23
2023-03-23T17:24:27.320Z,1.38
2023-03-23T17:26:55.242Z,1.63
2023-03-23T17:29:25.226Z,1.30
2023-03-23T17:31:52.650Z,1.67
2023-03-23T17:34:19.868Z,1.38
2023-03-23T17:36:47.023Z,1.30
2023-03-23T17:39:14.007Z,1.52
2023-03-23T17:41:41.002Z,1.90
2023-03-23T17:44:08.204Z,0.90
2023-03-23T17:46:35.393Z,1.40
2023-03-23T17:49:02.555Z,1.23
2023-03-23T17:51:29.668Z,1.15
2023-03-23T17:53:57.324Z,3.35
2023-03-23T17:56:24.724Z,1.10
2023-03-23T17:58:51.757Z,1.00
2023-03-23T18:01:18.818Z,1.67
2023-03-23T18:03:46.236Z,1.52
2023-03-23T18:06:13.424Z,1.73
2023-03-23T18:08:40.588Z,2.00
2023-03-23T18:11:08.845Z,1.73
2023-03-23T18:13:37.781Z,2.45
2023-03-23T18:16:06.087Z,1.58
2023-03-23T18:18:33.589Z,1.90
2023-03-23T18:21:10.607Z,2.03
2023-03-23T18:23:46.150Z,4.13
2023-03-23T18:26:21.818Z,5.70
2023-03-23T18:28:51.124Z,3.92
2023-03-23T18:31:19.897Z,3.20
2023-03-23T18:33:49.425Z,2.42
2023-03-23T18:36:19.267Z,2.15
2023-03-23T18:38:47.142Z,2.10
2023-03-23T18:41:15.066Z,3.25
2023-03-23T18:43:42.545Z,2.08
2023-03-23T18:46:09.977Z,2.05
2023-03-23T18:48:37.510Z,2.35
2023-03-23T18:51:04.762Z,2.13
2023-03-23T18:53:31.973Z,2.40
2023-03-23T18:56:14.120Z,2.88
2023-03-23T18:58:41.387Z,2.65
2023-03-23T19:01:12.376Z,3.00
2023-03-23T19:03:40.349Z,2.30
2023-03-23T19:06:23.524Z,2.15
2023-03-23T19:08:52.111Z,1.92
2023-03-23T19:11:20.569Z,3.22
2023-03-23T19:14:00.382Z,2.25
2023-03-23T19:16:35.446Z,1.73
2023-03-23T19:19:04.551Z,2.08
2023-03-23T19:21:32.601Z,1.90
2023-03-23T19:24:01.466Z,2.58
2023-03-23T19:26:37.679Z,1.90
2023-03-23T19:31:38.420Z,2.55
2023-03-23T19:34:06.123Z,1.83
2023-03-23T19:36:33.261Z,1.95
2023-03-23T19:39:02.668Z,2.42
2023-03-23T19:41:31.505Z,1.33
2023-03-23T19:43:59.427Z,1.90
2023-03-23T19:46:30.227Z,1.63
2023-03-23T19:48:59.078Z,1.80
2023-03-23T19:51:27.584Z,1.23
2023-03-23T19:53:57.262Z,1.35
2023-03-23T19:56:25.331Z,1.60
2023-03-23T19:58:52.563Z,1.98
2023-03-23T20:01:19.819Z,1.10
2023-03-23T20:03:47.461Z,1.30
2023-03-23T20:06:15.357Z,1.25
2023-03-23T20:08:45.488Z,1.83
2023-03-23T20:11:15.320Z,2.42
2023-03-23T20:13:43.193Z,1.45
2023-03-23T20:16:10.457Z,1.13
2023-03-23T20:18:38.394Z,1.20
2023-03-23T20:21:11.863Z,1.48
2023-03-23T20:23:41.105Z,1.20
2023-03-23T20:26:14.718Z,2.47
2023-03-23T20:28:42.701Z,1.30
2023-03-23T20:31:23.510Z,1.58
2023-03-23T20:34:02.686Z,1.05
2023-03-23T20:36:36.425Z,1.30
2023-03-23T20:39:08.011Z,1.38
2023-03-23T20:41:38.728Z,1.55
2023-03-23T20:44:09.147Z,1.70
2023-03-23T20:46:36.470Z,1.42
2023-03-23T20:49:05.908Z,1.27
2023-03-23T20:51:33.490Z,1.40
2023-03-23T20:54:01.951Z,1.25
2023-03-23T20:56:29.415Z,1.30
2023-03-23T20:58:56.626Z,1.35
2023-03-23T21:01:24.448Z,1.63
2023-03-23T21:03:53.925Z,1.30
2023-03-23T21:06:21.268Z,1.10
2023-03-23T21:08:48.801Z,1.40
2023-03-23T21:11:21.303Z,1.00
2023-03-23T21:13:49.010Z,1.58
2023-03-23T21:16:18.078Z,1.05
2023-03-23T21:18:45.969Z,1.67
2023-03-23T21:21:14.851Z,1.48
2023-03-23T21:23:46.696Z,1.73
2023-03-23T21:26:16.748Z,0.90
2023-03-23T21:28:45.511Z,1.10
2023-03-23T21:31:14.917Z,1.00
2023-03-23T21:33:41.997Z,1.25
2023-03-23T21:36:09.837Z,1.00
2023-03-23T21:38:38.173Z,1.10
2023-03-23T21:41:11.733Z,0.73
2023-03-23T21:43:40.533Z,1.05
2023-03-23T21:46:09.365Z,1.20
2023-03-23T21:48:38.451Z,1.10
2023-03-23T21:51:11.104Z,1.05
2023-03-23T21:53:38.133Z,1.77
2023-03-23T21:56:07.085Z,1.05
2023-03-23T21:58:34.251Z,0.90
2023-03-23T22:01:02.145Z,1.30
2023-03-23T22:03:35.098Z,1.02
2023-03-23T22:06:12.059Z,0.77
2023-03-23T22:08:41.091Z,0.90
2023-03-23T22:11:26.221Z,0.82
2023-03-23T22:13:55.405Z,0.80
2023-03-23T22:16:23.440Z,0.98
2023-03-23T22:18:52.303Z,0.90
2023-03-23T22:21:22.077Z,1.02
2023-03-23T22:23:49.257Z,1.08
2023-03-23T22:26:16.568Z,1.30
2023-03-23T22:28:46.134Z,1.10
2023-03-23T22:31:19.073Z,1.17
2023-03-23T22:33:47.586Z,1.02
2023-03-23T22:36:16.110Z,1.30
2023-03-23T22:38:45.449Z,1.13
2023-03-23T22:41:19.119Z,1.02
2023-03-23T22:43:48.056Z,0.98
2023-03-23T22:46:15.751Z,1.30
2023-03-23T22:48:43.797Z,1.02
2023-03-23T22:51:12.287Z,1.10
2023-03-23T22:53:39.869Z,1.10
2023-03-23T22:56:07.572Z,1.05
2023-03-23T22:58:35.267Z,1.10
2023-03-23T23:01:06.957Z,1.30
2023-03-23T23:03:35.247Z,0.85
2023-03-23T23:06:02.804Z,0.98
2023-03-23T23:08:30.658Z,2.08
2023-03-23T23:11:00.023Z,1.30
2023-03-23T23:13:28.080Z,1.55
2023-03-23T23:15:58.156Z,1.17
2023-03-23T23:18:26.922Z,1.30
2023-03-23T23:20:56.199Z,1.85
2023-03-23T23:23:25.423Z,1.17
2023-03-23T23:25:53.110Z,0.98
2023-03-23T23:28:21.378Z,1.30
2023-03-23T23:30:49.179Z,1.52
2023-03-23T23:33:16.679Z,1.67
2023-03-23T23:35:43.656Z,1.95
2023-03-23T23:38:12.357Z,1.45
2023-03-23T23:40:41.185Z,2.50
2023-03-23T23:43:11.080Z,2.65
2023-03-23T23:45:38.699Z,2.35
2023-03-23T23:48:06.049Z,1.80
2023-03-23T23:50:33.722Z,1.67
2023-03-23T23:53:00.859Z,1.52
2023-03-23T23:55:28.515Z,1.20
2023-03-23T23:57:56.044Z,0.77
